Time;durP1;ratioP1;P1;durP2;ratioP2;P2;SDS_P1;SDS_P2;PMS_P1;PMS_P2;Temp;Humidity;BMP_temperature;BMP_pressure;BME280_temperature;BME280_humidity;BME280_pressure;Samples;Min_cycle;Max_cycle;Signal;HPM_P1;HPM_P2
2021/08/11 00:01:49;;;;;;;;;;;15.00;99.90;;;13.57;95.75;101475.66;3510838;40;102238;-41
2021/08/11 00:04:16;;;;;;;;;;;15.00;99.90;;;13.53;95.59;101477.16;3510547;40;102713;-40
2021/08/11 00:06:44;;;;;;;;;;;15.00;99.90;;;13.53;95.90;101482.66;3510318;40;102199;-40
2021/08/11 00:09:12;;;;;;;;;;;14.90;99.90;;;13.50;96.04;101477.56;3511260;40;102284;-40
2021/08/11 00:11:39;;;;;;;;;;;14.90;99.90;;;13.44;95.90;101479.31;3510818;40;102103;-39
2021/08/11 00:14:07;;;;;;;;;;;14.90;99.90;;;13.38;95.63;101475.47;3510795;40;103590;-40
2021/08/11 00:16:34;;;;;;;;;;;14.80;99.90;;;13.28;95.75;101466.88;3510622;40;103144;-43
2021/08/11 00:19:02;;;;;;;;;;;14.80;99.90;;;13.31;95.83;101479.28;3510800;40;102348;-40
2021/08/11 00:21:29;;;;;;;;;;;14.70;99.90;;;13.30;95.96;101469.38;3510864;40;102303;-40
2021/08/11 00:23:56;;;;;;;;;;;14.70;99.90;;;13.29;96.25;101471.31;3510750;40;102313;-41
2021/08/11 00:26:23;;;;;;;;;;;14.70;99.90;;;13.24;96.02;101471.09;3510455;40;102435;-40
2021/08/11 00:28:51;;;;;;;;;;;14.70;99.90;;;13.21;95.76;101468.78;3510455;40;103063;-42
2021/08/11 00:31:18;;;;;;;;;;;14.60;99.90;;;13.16;95.58;101474.06;3510538;40;102395;-40
2021/08/11 00:33:46;;;;;;;;;;;14.60;99.90;;;13.14;95.50;101476.19;3510409;40;104934;-40
2021/08/11 00:36:13;;;;;;;;;;;14.60;99.90;;;13.11;95.61;101466.47;3510561;40;102101;-40
2021/08/11 00:38:41;;;;;;;;;;;14.50;99.90;;;13.09;95.67;101466.72;3510392;40;102437;-40
2021/08/11 00:41:15;;;;;;;;;;;14.50;99.90;;;13.05;95.16;101473.66;3501753;40;103508;-39
2021/08/11 00:43:43;;;;;;;;;;;14.50;99.90;;;13.01;95.13;101466.09;3509678;40;103121;-40
2021/08/11 00:46:14;;;;;;;;;;;14.40;99.90;;;12.98;95.14;101472.81;3501243;40;104667;-39
2021/08/11 00:48:41;;;;;;;;;;;14.40;99.90;;;12.94;95.44;101477.03;3510564;40;104930;-40
2021/08/11 00:51:14;;;;;;;;;;;14.40;99.90;;;12.90;95.41;101482.13;3510855;40;102205;-41
2021/08/11 00:53:42;;;;;;;;;;;14.30;99.90;;;12.85;95.19;101481.06;3501640;40;103817;-43
2021/08/11 00:56:12;;;;;;;;;;;14.30;99.90;;;12.76;94.96;101466.75;3501178;40;102297;-40
2021/08/11 00:58:40;;;;;;;;;;;14.30;99.90;;;12.76;95.10;101474.94;3510466;40;102330;-40
2021/08/11 01:01:08;;;;;;;;;;;14.20;99.90;;;12.73;95.24;101475.38;3510417;40;102756;-40
2021/08/11 01:03:37;;;;;;;;;;;14.20;99.90;;;12.69;95.32;101468.66;3501213;40;104097;-44
2021/08/11 01:06:08;;;;;;;;;;;14.10;99.90;;;12.67;95.34;101474.31;3501068;40;102862;-40
2021/08/11 01:08:40;;;;;;;;;;;14.10;99.90;;;12.66;95.68;101480.84;3501297;40;104668;-40
2021/08/11 01:11:09;;;;;;;;;;;14.10;99.90;;;12.63;95.51;101479.41;3510469;40;102475;-40
2021/08/11 01:13:38;;;;;;;;;;;14.10;99.90;;;12.57;95.48;101479.38;3501339;40;105229;-40
2021/08/11 01:16:06;;;;;;;;;;;14.00;99.90;;;12.55;95.49;101484.22;3510204;40;102721;-40
2021/08/11 01:18:35;;;;;;;;;;;14.00;99.90;;;12.51;95.22;101484.66;3500987;40;102474;-40
2021/08/11 01:21:46;;;;;;;;;;;14.00;99.90;;;12.49;95.44;101484.00;3501054;40;102644;-40
2021/08/11 01:24:48;;;;;;;;;;;13.90;99.90;;;12.49;95.61;101483.16;3510285;40;103320;-39
2021/08/11 01:28:30;;;;;;;;;;;14.00;99.90;;;12.51;95.95;101481.91;3509934;40;103680;-40
2021/08/11 01:31:07;;;;;;;;;;;13.90;99.90;;;12.48;96.19;101485.06;3450014;40;102439;-40
2021/08/11 01:33:56;;;;;;;;;;;13.90;99.90;;;12.46;96.02;101478.94;3459171;40;102512;-41
2021/08/11 01:36:39;;;;;;;;;;;13.90;99.90;;;12.45;96.26;101477.25;3499166;40;104115;-40
2021/08/11 01:39:15;;;;;;;;;;;13.90;99.90;;;12.46;96.46;101478.09;3510056;40;102720;-40
2021/08/11 01:41:48;;;;;;;;;;;13.90;99.90;;;12.45;96.88;101482.72;3500829;40;102314;-44
2021/08/11 01:44:21;;;;;;;;;;;13.90;99.90;;;12.44;96.79;101486.50;3500772;40;103747;-40
2021/08/11 01:46:53;;;;;;;;;;;13.90;99.90;;;12.45;96.96;101488.19;3500647;40;103448;-40
2021/08/11 01:49:22;;;;;;;;;;;13.90;99.90;;;12.43;96.92;101487.56;3500841;40;103978;-41
2021/08/11 01:51:50;;;;;;;;;;;13.90;99.90;;;12.43;97.00;101490.31;3509440;40;103186;-40
2021/08/11 01:54:22;;;;;;;;;;;13.90;99.90;;;12.42;97.17;101494.09;3501409;40;102568;-40
2021/08/11 01:56:50;;;;;;;;;;;13.90;99.90;;;12.41;97.31;101497.06;3502025;40;103504;-39
2021/08/11 01:59:18;;;;;;;;;;;13.90;99.90;;;12.39;97.57;101491.78;3511328;40;102409;-40
2021/08/11 02:01:46;;;;;;;;;;;13.90;99.90;;;12.37;97.48;101494.75;3510876;40;103979;-40
2021/08/11 02:04:15;;;;;;;;;;;13.80;99.90;;;12.36;97.64;101492.19;3502046;40;103075;-40
2021/08/11 02:06:45;;;;;;;;;;;13.80;99.90;;;12.27;97.40;101480.59;3502042;40;103380;-40
2021/08/11 02:09:17;;;;;;;;;;;13.80;99.90;;;12.29;97.40;101489.44;3502180;40;103910;-40
2021/08/11 02:11:46;;;;;;;;;;;13.80;99.90;;;12.28;97.28;101484.19;3501861;40;102287;-40
2021/08/11 02:14:15;;;;;;;;;;;13.70;99.90;;;12.27;97.44;101490.72;3510901;40;102822;-39
2021/08/11 02:16:45;;;;;;;;;;;13.70;99.90;;;12.25;97.69;101487.34;3501949;40;104827;-40
2021/08/11 02:19:12;;;;;;;;;;;13.70;99.90;;;12.24;97.42;101489.22;3501865;40;102874;-40
2021/08/11 02:21:40;;;;;;;;;;;13.70;99.90;;;12.21;97.50;101486.91;3510938;40;104037;-40
2021/08/11 02:24:10;;;;;;;;;;;13.70;99.90;;;12.19;97.59;101484.38;3501692;40;102536;-40
2021/08/11 02:26:50;;;;;;;;;;;13.70;99.90;;;12.19;97.38;101478.91;3501739;40;103260;-40
2021/08/11 02:29:53;;;;;;;;;;;13.70;99.90;;;12.17;97.44;101482.91;3633565;23;102994;-40
2021/08/11 02:32:35;;;;;;;;;;;13.60;99.90;;;12.14;97.13;101481.41;3496171;40;105910;-41
2021/08/11 02:35:23;;;;;;;;;;;13.60;99.90;;;12.08;97.48;101476.78;3501076;40;102984;-40
2021/08/11 02:38:07;;;;;;;;;;;13.60;99.90;;;12.07;97.62;101477.84;3498591;40;106131;-40
2021/08/11 02:41:01;;;;;;;;;;;13.60;99.90;;;12.04;97.75;101486.44;3499090;40;103683;-40
2021/08/11 02:43:59;;;;;;;;;;;13.50;99.90;;;12.00;97.69;101480.50;3490568;40;104049;-41
2021/08/11 02:46:28;;;;;;;;;;;13.50;99.90;;;11.99;97.32;101478.81;3490802;40;103985;-40
2021/08/11 02:49:02;;;;;;;;;;;13.50;99.90;;;11.94;97.51;101475.88;3498599;40;104855;-40
2021/08/11 02:51:34;;;;;;;;;;;13.40;99.90;;;11.98;97.59;101487.25;3498762;40;102761;-41
2021/08/11 02:54:07;;;;;;;;;;;13.40;99.90;;;11.94;97.59;101482.19;3491415;40;103083;-40
2021/08/11 02:56:34;;;;;;;;;;;13.40;99.90;;;11.93;97.68;101482.38;3492028;40;102246;-40
2021/08/11 02:59:04;;;;;;;;;;;13.40;99.90;;;11.90;97.64;101483.63;3490483;40;103374;-41
2021/08/11 03:01:31;;;;;;;;;;;13.40;99.90;;;11.86;97.47;101485.09;3498614;40;104943;-40
2021/08/11 03:03:59;;;;;;;;;;;13.30;99.90;;;11.83;97.61;101485.50;3490511;40;103144;-39
2021/08/11 03:06:27;;;;;;;;;;;13.30;99.90;;;11.76;97.47;101481.91;3491302;40;102347;-40
2021/08/11 03:08:55;;;;;;;;;;;13.30;99.90;;;11.78;97.26;101485.28;3498461;40;104169;-40
2021/08/11 03:11:23;;;;;;;;;;;13.30;99.90;;;11.74;97.18;101478.53;3490493;40;104724;-41
2021/08/11 03:13:52;;;;;;;;;;;13.20;99.90;;;11.74;97.14;101486.75;3490898;40;104044;-41
2021/08/11 03:16:20;;;;;;;;;;;13.20;99.90;;;11.72;97.53;101483.38;3498628;40;102200;-41
2021/08/11 03:18:51;;;;;;;;;;;13.20;99.90;;;11.69;97.58;101479.16;3498626;40;102318;-40
2021/08/11 03:21:20;;;;;;;;;;;13.20;99.90;;;11.65;97.38;101481.44;3491700;40;103603;-41
2021/08/11 03:23:47;;;;;;;;;;;13.10;99.90;;;11.64;97.20;101487.13;3491365;40;104011;-40
2021/08/11 03:26:17;;;;;;;;;;;13.10;99.90;;;11.58;96.97;101488.75;3490193;40;102986;-41
2021/08/11 03:28:44;;;;;;;;;;;13.10;99.90;;;11.56;97.23;101485.41;3490350;40;103938;-41
2021/08/11 03:31:11;;;;;;;;;;;13.10;99.90;;;11.55;97.11;101488.34;3491517;40;102585;-41
2021/08/11 03:33:42;;;;;;;;;;;13.10;99.90;;;11.55;97.20;101488.34;3498481;40;104708;-40
2021/08/11 03:36:10;;;;;;;;;;;13.10;99.90;;;11.50;97.25;101487.03;3498241;40;103039;-40
2021/08/11 03:38:39;;;;;;;;;;;13.00;99.90;;;11.49;97.35;101485.34;3498360;40;103204;-41
2021/08/11 03:41:08;;;;;;;;;;;13.00;99.90;;;11.50;97.27;101486.22;3490494;40;102527;-40
2021/08/11 03:43:35;;;;;;;;;;;13.00;99.90;;;11.40;97.51;101472.06;3490979;40;103100;-40
2021/08/11 03:46:03;;;;;;;;;;;13.00;99.90;;;11.53;97.32;101496.75;3498286;40;102443;-40
2021/08/11 03:48:31;;;;;;;;;;;13.00;99.90;;;11.56;97.90;101493.59;3490293;40;104405;-41
2021/08/11 03:50:58;;;;;;;;;;;13.00;99.90;;;11.61;98.44;101493.81;3491539;40;103686;-41
2021/08/11 03:53:25;;;;;;;;;;;13.10;99.90;;;11.64;98.77;101493.41;3498341;40;104182;-41
2021/08/11 03:55:53;;;;;;;;;;;13.10;99.90;;;11.69;99.19;101497.44;3498155;40;103022;-40
2021/08/11 03:58:20;;;;;;;;;;;13.10;99.90;;;11.69;99.44;101502.91;3490362;40;105440;-40
2021/08/11 04:00:48;;;;;;;;;;;13.10;99.90;;;11.70;99.44;101496.41;3490341;40;102214;-41
2021/08/11 04:03:15;;;;;;;;;;;13.10;99.90;;;11.70;99.37;101496.41;3491515;40;102200;-41
2021/08/11 04:05:42;;;;;;;;;;;13.10;99.90;;;11.70;99.58;101490.94;3491251;40;102658;-40
2021/08/11 04:08:11;;;;;;;;;;;13.20;99.90;;;11.72;99.94;101500.59;3491304;40;102682;-41
2021/08/11 04:10:38;;;;;;;;;;;13.20;99.90;;;11.71;99.92;101492.63;3491105;40;102417;-41
2021/08/11 04:13:06;;;;;;;;;;;13.20;99.90;;;11.69;99.87;101492.00;3491091;40;102114;-41
2021/08/11 04:15:33;;;;;;;;;;;13.20;99.90;;;11.73;100.00;101496.81;3491130;40;102313;-41
2021/08/11 04:18:00;;;;;;;;;;;13.20;99.90;;;11.76;100.00;101495.59;3490926;40;102546;-40
2021/08/11 04:20:27;;;;;;;;;;;13.20;99.90;;;11.79;100.00;101493.25;3491243;40;102401;-40
2021/08/11 04:22:56;;;;;;;;;;;13.20;99.90;;;11.76;100.00;101480.00;3490463;40;121777;-41
2021/08/11 04:25:24;;;;;;;;;;;13.20;99.90;;;11.86;100.00;101496.03;3490703;40;102378;-40
2021/08/11 04:27:51;;;;;;;;;;;13.30;99.90;;;11.92;100.00;101494.38;3491144;40;103243;-41
2021/08/11 04:30:18;;;;;;;;;;;13.30;99.90;;;12.05;100.00;101493.59;3491397;40;102250;-41
2021/08/11 04:32:45;;;;;;;;;;;13.40;99.90;;;12.22;100.00;101499.53;3491005;40;103111;-41
2021/08/11 04:35:13;;;;;;;;;;;13.50;99.90;;;12.34;100.00;101491.56;3491270;40;102322;-40
2021/08/11 04:37:40;;;;;;;;;;;13.70;99.90;;;12.48;100.00;101498.75;3490944;40;102392;-40
2021/08/11 04:40:08;;;;;;;;;;;13.80;99.90;;;12.63;100.00;101508.66;3491259;40;102407;-40
2021/08/11 04:42:36;;;;;;;;;;;13.90;99.90;;;12.75;100.00;101500.66;3490948;40;102898;-40
2021/08/11 04:45:03;;;;;;;;;;;14.00;99.90;;;12.87;100.00;101509.06;3490890;40;102285;-40
2021/08/11 04:47:30;;;;;;;;;;;14.10;99.90;;;13.08;100.00;101514.34;3490962;40;102534;-40
2021/08/11 04:49:58;;;;;;;;;;;14.30;99.90;;;13.16;100.00;101509.69;3491109;40;102305;-40
2021/08/11 04:52:25;;;;;;;;;;;14.40;99.90;;;13.24;100.00;101506.69;3490994;40;103008;-41
2021/08/11 04:54:52;;;;;;;;;;;14.50;99.90;;;13.35;100.00;101519.75;3490949;40;102272;-41
2021/08/11 04:57:19;;;;;;;;;;;14.60;99.90;;;13.44;100.00;101523.16;3490964;40;102250;-41
2021/08/11 04:59:46;;;;;;;;;;;14.70;99.90;;;13.53;100.00;101521.03;3490939;40;102255;-41
2021/08/11 05:02:14;;;;;;;;;;;14.80;99.90;;;13.62;100.00;101524.34;3490845;40;103154;-41
2021/08/11 05:04:41;;;;;;;;;;;14.90;99.90;;;13.72;100.00;101524.75;3490927;40;102841;-41
2021/08/11 05:07:08;;;;;;;;;;;14.90;99.90;;;13.83;100.00;101528.72;3491103;40;103054;-41
2021/08/11 05:09:36;;;;;;;;;;;15.00;99.90;;;13.93;100.00;101520.88;3491131;40;102362;-41
2021/08/11 05:12:04;;;;;;;;;;;15.20;99.90;;;14.05;100.00;101521.03;3490949;40;103123;-40
2021/08/11 05:14:32;;;;;;;;;;;15.20;99.90;;;14.17;100.00;101523.06;3490850;40;102736;-40
2021/08/11 05:16:59;;;;;;;;;;;15.40;99.90;;;14.27;100.00;101517.94;3490763;40;102301;-41
2021/08/11 05:19:27;;;;;;;;;;;15.50;99.90;;;14.34;100.00;101517.91;3491618;40;102228;-41
2021/08/11 05:21:54;;;;;;;;;;;15.50;99.90;;;14.40;100.00;101522.50;3491051;40;102216;-40
2021/08/11 05:24:21;;;;;;;;;;;15.60;99.90;;;14.52;100.00;101526.22;3490579;40;102625;-41
2021/08/11 05:26:49;;;;;;;;;;;15.70;99.90;;;14.60;100.00;101522.38;3491357;40;102909;-40
2021/08/11 05:29:20;;;;;;;;;;;15.80;99.90;;;14.69;100.00;101533.94;3490193;40;102348;-41
2021/08/11 05:31:47;;;;;;;;;;;15.90;99.90;;;14.77;100.00;101546.59;3490959;40;102368;-41
2021/08/11 05:34:14;;;;;;;;;;;15.90;99.90;;;14.84;100.00;101527.28;3490599;40;102219;-40
2021/08/11 05:36:41;;;;;;;;;;;16.00;99.90;;;14.89;100.00;101532.97;3490691;40;102318;-41
2021/08/11 05:39:08;;;;;;;;;;;16.00;99.90;;;14.91;100.00;101533.59;3490667;40;102440;-41
2021/08/11 05:41:35;;;;;;;;;;;16.10;99.90;;;14.95;100.00;101532.06;3490404;40;102410;-40
2021/08/11 05:44:04;;;;;;;;;;;16.10;99.90;;;14.99;100.00;101536.03;3490583;40;102437;-40
2021/08/11 05:46:31;;;;;;;;;;;16.20;99.90;;;15.01;100.00;101542.16;3490680;40;102821;-40
2021/08/11 05:48:58;;;;;;;;;;;16.20;99.90;;;15.04;100.00;101547.19;3490604;40;102189;-41
2021/08/11 05:51:30;;;;;;;;;;;16.30;99.90;;;15.05;100.00;101543.38;3490562;40;102266;-41
2021/08/11 05:53:57;;;;;;;;;;;16.30;99.90;;;15.08;100.00;101553.91;3490596;40;102891;-40
2021/08/11 05:56:25;;;;;;;;;;;16.30;99.90;;;15.13;100.00;101553.25;3490641;40;102954;-40
2021/08/11 05:58:52;;;;;;;;;;;16.30;99.90;;;15.22;100.00;101559.31;3490724;40;102482;-40
2021/08/11 06:01:21;;;;;;;;;;;16.40;99.90;;;15.24;100.00;101568.16;3490514;40;102539;-41
2021/08/11 06:03:53;;;;;;;;;;;16.40;99.90;;;15.27;100.00;101575.94;3490744;40;102418;-41
2021/08/11 06:06:21;;;;;;;;;;;16.40;99.90;;;15.27;100.00;101567.69;3490840;40;102239;-41
2021/08/11 06:08:48;;;;;;;;;;;16.50;99.90;;;15.30;100.00;101575.50;3490347;40;102431;-40
2021/08/11 06:11:16;;;;;;;;;;;16.50;99.90;;;15.37;100.00;101576.25;3490362;40;104248;-41
2021/08/11 06:13:44;;;;;;;;;;;16.50;99.90;;;15.41;100.00;101581.34;3490182;40;102343;-40
2021/08/11 06:16:11;;;;;;;;;;;16.60;99.90;;;15.38;100.00;101574.38;3490827;40;103349;-41
2021/08/11 06:18:39;;;;;;;;;;;16.60;99.90;;;15.48;100.00;101587.59;3490256;40;102279;-41
2021/08/11 06:21:06;;;;;;;;;;;16.60;99.90;;;15.52;100.00;101583.31;3490106;40;102302;-41
2021/08/11 06:23:34;;;;;;;;;;;16.70;99.90;;;15.60;100.00;101582.19;3490958;40;102347;-40
2021/08/11 06:26:01;;;;;;;;;;;16.80;99.90;;;15.63;100.00;101590.81;3490228;40;103428;-41
2021/08/11 06:28:30;;;;;;;;;;;16.80;99.90;;;15.71;100.00;101599.84;3490012;40;102953;-41
2021/08/11 06:30:57;;;;;;;;;;;16.90;99.90;;;15.72;100.00;101594.09;3490580;40;102668;-41
2021/08/11 06:33:25;;;;;;;;;;;16.90;99.90;;;15.83;100.00;101600.75;3490424;40;102467;-41
2021/08/11 06:35:52;;;;;;;;;;;17.00;99.90;;;15.89;100.00;101601.78;3490240;40;102330;-41
2021/08/11 06:38:19;;;;;;;;;;;17.00;99.90;;;15.93;100.00;101598.38;3490341;40;102436;-41
2021/08/11 06:40:47;;;;;;;;;;;17.00;99.90;;;15.99;100.00;101595.75;3491122;40;103351;-41
2021/08/11 06:43:15;;;;;;;;;;;17.10;99.90;;;16.09;100.00;101590.53;3491718;40;103050;-41
2021/08/11 06:45:42;;;;;;;;;;;17.20;99.90;;;16.12;100.00;101578.25;3491369;40;104988;-41
2021/08/11 06:48:10;;;;;;;;;;;17.20;99.90;;;16.19;100.00;101585.34;3498543;40;104900;-41
2021/08/11 06:50:37;;;;;;;;;;;17.30;99.90;;;16.31;100.00;101581.78;3498781;40;103167;-41
2021/08/11 06:53:05;;;;;;;;;;;17.40;99.90;;;16.43;100.00;101585.44;3492064;40;102312;-41
2021/08/11 06:55:32;;;;;;;;;;;17.40;99.90;;;16.55;100.00;101582.72;3491445;40;102139;-41
2021/08/11 06:57:59;;;;;;;;;;;17.60;99.90;;;16.63;100.00;101589.81;3491502;40;102191;-41
2021/08/11 07:00:27;;;;;;;;;;;17.60;99.90;;;16.66;100.00;101592.09;3491565;40;102403;-41
2021/08/11 07:02:54;;;;;;;;;;;17.70;99.90;;;16.68;100.00;101593.56;3491616;40;102377;-41
2021/08/11 07:05:22;;;;;;;;;;;17.70;99.90;;;16.66;99.86;101603.13;3491727;40;102354;-42
2021/08/11 07:07:49;;;;;;;;;;;17.70;99.90;;;16.70;100.00;101600.75;3491687;40;102096;-41
2021/08/11 07:10:17;;;;;;;;;;;17.80;99.90;;;16.72;99.83;101604.09;3491542;40;102142;-41
2021/08/11 07:12:44;;;;;;;;;;;17.80;99.90;;;16.78;100.00;101604.00;3491314;40;102389;-40
2021/08/11 07:15:12;;;;;;;;;;;17.80;99.90;;;16.84;100.00;101604.97;3491637;40;102233;-41
2021/08/11 07:17:50;;;;;;;;;;;17.90;99.90;;;16.82;99.74;101607.97;3491544;40;102366;-41
2021/08/11 07:20:17;;;;;;;;;;;17.90;99.90;;;16.87;99.62;101612.78;3491432;40;102301;-41
2021/08/11 07:22:45;;;;;;;;;;;17.90;99.90;;;16.97;99.66;101618.53;3491591;40;102212;-41
2021/08/11 07:25:13;;;;;;;;;;;18.00;99.90;;;17.00;98.64;101610.91;3491491;40;102268;-41
2021/08/11 07:27:41;;;;;;;;;;;18.00;99.90;;;17.09;98.67;101624.13;3491274;40;102148;-41
2021/08/11 07:30:09;;;;;;;;;;;18.10;99.90;;;17.14;97.63;101622.56;3491816;40;102334;-41
2021/08/11 07:32:36;;;;;;;;;;;18.10;99.90;;;17.17;96.79;101627.59;3491237;40;103109;-42
2021/08/11 07:35:04;;;;;;;;;;;18.20;99.90;;;17.29;96.69;101636.75;3491260;40;104196;-43
2021/08/11 07:37:32;;;;;;;;;;;18.30;99.90;;;17.37;95.85;101633.63;3491244;40;102520;-41
2021/08/11 07:39:59;;;;;;;;;;;18.40;99.90;;;17.45;93.34;101640.72;3491412;40;103510;-40
2021/08/11 07:42:26;;;;;;;;;;;18.40;99.90;;;17.56;93.96;101632.66;3491537;40;102311;-41
2021/08/11 07:44:54;;;;;;;;;;;18.50;99.90;;;17.74;94.80;101631.69;3491336;40;102245;-41
2021/08/11 07:47:21;;;;;;;;;;;18.60;99.90;;;17.90;93.38;101628.19;3491444;40;102438;-40
2021/08/11 07:49:48;;;;;;;;;;;18.80;99.90;;;17.90;91.46;101630.97;3491221;40;103317;-41
2021/08/11 07:52:16;;;;;;;;;;;18.80;99.90;;;17.94;90.64;101634.91;3491268;40;102515;-41
2021/08/11 07:54:43;;;;;;;;;;;18.90;99.90;;;18.16;93.10;101637.06;3491203;40;102251;-41
2021/08/11 07:57:10;;;;;;;;;;;19.00;99.90;;;18.20;89.41;101634.66;3491377;40;102114;-41
2021/08/11 07:59:38;;;;;;;;;;;19.10;99.90;;;18.23;90.42;101631.41;3498176;40;105136;-41
2021/08/11 08:02:10;;;;;;;;;;;19.10;99.90;;;18.35;91.30;101637.72;3491432;40;102166;-41
2021/08/11 08:04:37;;;;;;;;;;;19.20;99.90;;;18.51;89.61;101627.81;3491077;40;103124;-41
2021/08/11 08:07:04;;;;;;;;;;;19.40;99.90;;;18.68;88.85;101633.38;3490269;40;102455;-41
2021/08/11 08:09:32;;;;;;;;;;;19.50;99.90;;;19.00;88.36;101634.00;3491172;40;103081;-41
2021/08/11 08:11:59;;;;;;;;;;;19.70;99.90;;;19.18;84.93;101638.44;3490992;40;102238;-41
2021/08/11 08:14:27;;;;;;;;;;;19.90;99.90;;;19.17;84.26;101636.75;3491278;40;102327;-38
2021/08/11 08:16:54;;;;;;;;;;;19.90;99.90;;;19.22;84.19;101643.19;3491118;40;102936;-38
2021/08/11 08:19:21;;;;;;;;;;;20.00;99.90;;;19.29;84.73;101645.81;3491557;40;102305;-38
2021/08/11 08:21:49;;;;;;;;;;;20.10;99.90;;;19.17;83.56;101653.34;3491588;40;102211;-38
2021/08/11 08:24:16;;;;;;;;;;;20.00;99.90;;;19.15;83.17;101644.47;3490144;40;103884;-39
2021/08/11 08:26:44;;;;;;;;;;;20.00;99.90;;;19.10;82.29;101643.31;3491028;40;102905;-39
2021/08/11 08:29:11;;;;;;;;;;;20.00;99.90;;;19.21;82.63;101643.47;3631373;22;102744;-41
2021/08/11 08:31:39;;;;;;;;;;;20.10;99.90;;;19.29;82.53;101639.44;3515944;40;102354;-41
2021/08/11 08:34:06;;;;;;;;;;;20.10;99.90;;;19.52;82.63;101635.66;3520430;40;103067;-40
2021/08/11 08:36:33;;;;;;;;;;;20.30;99.90;;;19.90;82.55;101622.91;3520533;40;102141;-41
2021/08/11 08:39:01;;;;;;;;;;;20.50;99.90;;;20.07;79.62;101627.56;3520237;40;103208;-40
2021/08/11 08:41:29;;;;;;;;;;;20.70;99.90;;;20.27;77.63;101633.38;3520790;40;102274;-40
2021/08/11 08:43:56;;;;;;;;;;;20.80;99.90;;;20.11;76.56;101623.19;3511358;40;102281;-40
2021/08/11 08:46:25;;;;;;;;;;;20.90;99.90;;;20.16;80.00;101623.28;3520276;40;102477;-42
2021/08/11 08:48:54;;;;;;;;;;;21.00;99.90;;;20.11;78.79;101628.72;3520328;40;102647;-41
2021/08/11 08:51:22;;;;;;;;;;;20.90;99.90;;;20.15;78.10;101623.53;3520508;40;102372;-40
2021/08/11 08:53:50;;;;;;;;;;;21.00;99.90;;;20.31;75.84;101633.72;3520414;40;102324;-43
2021/08/11 08:56:17;;;;;;;;;;;21.00;99.90;;;20.54;78.78;101634.50;3520292;40;102447;-41
2021/08/11 08:58:45;;;;;;;;;;;21.20;99.90;;;20.69;74.79;101639.41;3511609;40;102545;-40
2021/08/11 09:01:12;;;;;;;;;;;21.40;99.90;;;20.80;76.10;101635.66;3520199;40;102193;-44
2021/08/11 09:03:40;;;;;;;;;;;21.50;99.90;;;21.02;76.94;101631.13;3519751;40;102318;-39
2021/08/11 09:06:07;;;;;;;;;;;21.70;99.90;;;21.19;74.67;101626.28;3520292;40;102587;-41
2021/08/11 09:08:35;;;;;;;;;;;21.80;99.90;;;21.04;74.38;101632.53;3520219;40;102480;-42
2021/08/11 09:11:15;;;;;;;;;;;21.80;99.90;;;21.20;71.20;101627.09;3520102;40;102148;-40
2021/08/11 09:13:42;;;;;;;;;;;21.90;99.90;;;21.31;73.06;101626.09;3520003;40;103173;-40
2021/08/11 09:16:13;;;;;;;;;;;22.00;99.90;;;21.45;72.37;101622.84;3520464;40;102050;-41
2021/08/11 09:18:51;;;;;;;;;;;22.10;99.90;;;21.77;73.12;101630.31;3520525;40;103141;-40
2021/08/11 09:21:19;;;;;;;;;;;22.30;99.90;;;22.05;72.69;101629.06;3520359;40;103053;-41
2021/08/11 09:23:47;;;;;;;;;;;22.50;99.90;;;22.16;70.53;101631.91;3520337;40;102586;-40
2021/08/11 09:26:16;;;;;;;;;;;22.70;99.90;;;22.05;68.70;101631.03;3520082;40;102306;-41
2021/08/11 09:28:46;;;;;;;;;;;22.70;99.90;;;22.04;70.96;101632.13;3520315;40;102292;-40
2021/08/11 09:31:19;;;;;;;;;;;22.70;99.90;;;22.11;69.95;101627.16;3520202;40;102222;-42
2021/08/11 09:33:55;;;;;;;;;;;22.80;99.90;;;22.06;69.47;101625.19;3511281;40;102584;-41
2021/08/11 09:36:23;;;;;;;;;;;22.70;99.90;;;22.13;69.89;101627.72;3520441;40;102214;-41
2021/08/11 09:38:59;;;;;;;;;;;22.80;99.90;;;22.17;69.66;101628.84;3519957;40;102406;-41
2021/08/11 09:41:26;;;;;;;;;;;22.90;99.90;;;22.02;68.65;101618.50;3519935;40;102830;-43
2021/08/11 09:44:10;;;;;;;;;;;22.80;99.90;;;21.86;68.95;101623.16;3520406;40;103006;-39
2021/08/11 09:46:39;;;;;;;;;;;22.70;99.90;;;21.89;70.26;101625.38;3520416;40;102463;-40
2021/08/11 09:49:21;;;;;;;;;;;22.70;99.90;;;21.73;69.45;101629.16;3520112;40;103177;-41
2021/08/11 09:52:00;;;;;;;;;;;22.70;99.90;;;21.72;68.19;101627.50;3520056;40;102758;-40
2021/08/11 09:54:29;;;;;;;;;;;22.60;99.90;;;21.76;69.82;101628.66;3519922;40;102057;-41
2021/08/11 09:56:58;;;;;;;;;;;22.60;99.90;;;21.76;72.02;101625.88;3520137;40;102358;-42
2021/08/11 09:59:26;;;;;;;;;;;22.60;99.90;;;21.92;70.69;101638.72;3519909;40;102130;-41
2021/08/11 10:02:15;;;;;;;;;;;22.60;99.90;;;22.15;67.69;101630.19;3520095;40;102417;-41
2021/08/11 10:04:42;;;;;;;;;;;22.70;99.90;;;22.36;68.59;101629.16;3519886;40;104345;-41
2021/08/11 10:07:10;;;;;;;;;;;23.00;99.90;;;22.21;66.20;101635.50;3519889;40;102258;-41
2021/08/11 10:09:40;;;;;;;;;;;23.00;99.90;;;22.30;65.63;101638.59;3520014;40;103162;-39
2021/08/11 10:12:28;;;;;;;;;;;23.00;99.90;;;22.49;66.45;101640.94;3519569;40;102433;-41
2021/08/11 10:15:00;;;;;;;;;;;23.20;99.90;;;22.56;65.66;101641.50;3520150;40;103228;-41
2021/08/11 10:17:34;;;;;;;;;;;23.20;99.90;;;22.67;63.90;101637.63;3521385;40;102853;-40
2021/08/11 10:20:05;;;;;;;;;;;23.40;99.90;;;22.89;64.16;101635.72;3520806;40;102205;-41
2021/08/11 10:22:32;;;;;;;;;;;23.50;99.90;;;23.02;63.44;101637.13;3521233;40;102838;-42
2021/08/11 10:25:00;;;;;;;;;;;23.60;99.90;;;23.17;64.76;101639.06;3512027;40;103111;-40
2021/08/11 10:27:28;;;;;;;;;;;23.80;99.90;;;22.92;63.23;101637.94;3521175;40;102229;-40
2021/08/11 10:29:56;;;;;;;;;;;23.60;99.90;;;22.75;65.18;101636.25;3521241;40;103110;-41
2021/08/11 10:32:24;;;;;;;;;;;23.50;99.90;;;22.77;61.12;101633.19;3521424;40;102951;-41
2021/08/11 10:34:54;;;;;;;;;;;23.60;99.90;;;22.89;62.63;101638.50;3512026;40;102336;-41
2021/08/11 10:37:24;;;;;;;;;;;23.70;99.90;;;22.70;63.15;101631.53;3521122;40;102375;-40
2021/08/11 10:39:52;;;;;;;;;;;23.50;99.90;;;22.76;62.48;101640.69;3521228;40;102438;-40
2021/08/11 10:42:20;;;;;;;;;;;23.50;99.90;;;22.90;66.97;101632.66;3521183;40;102379;-41
2021/08/11 10:44:55;;;;;;;;;;;23.60;99.90;;;23.18;65.91;101635.19;3521008;40;102710;-43
2021/08/11 10:47:31;;;;;;;;;;;23.80;99.90;;;23.40;64.48;101638.53;3521392;40;102066;-40
2021/08/11 10:50:01;;;;;;;;;;;24.00;99.90;;;23.68;64.54;101638.19;3520657;40;102207;-40
2021/08/11 10:52:29;;;;;;;;;;;24.20;99.90;;;23.87;63.62;101644.03;3521340;40;102383;-40
2021/08/11 10:55:02;;;;;;;;;;;;;;;24.13;60.25;101624.41;3520714;40;104137;-40
2021/08/11 10:57:35;;;;;;;;;;;;;;;24.32;58.74;101633.00;3520924;40;102390;-39
2021/08/11 11:00:05;;;;;;;;;;;;;;;24.39;61.37;101635.44;3520780;40;102600;-40
2021/08/11 11:02:41;;;;;;;;;;;;;;;24.45;58.26;101636.25;3520503;40;102335;-41
2021/08/11 11:05:22;;;;;;;;;;;;;;;24.59;61.01;101634.53;3520812;40;102210;-41
2021/08/11 11:08:16;;;;;;;;;;;;;;;24.67;60.87;101633.09;3520688;40;102389;-40
2021/08/11 11:10:46;;;;;;;;;;;;;;;24.71;60.47;101632.19;3509410;40;102758;-40
2021/08/11 11:13:23;;;;;;;;;;;;;;;24.88;59.88;101631.00;3521305;40;102485;-41
2021/08/11 11:15:51;;;;;;;;;;;;;;;24.95;56.01;101630.69;3521199;40;102329;-40